Terminal Aerodrome Forecast
Issued by NWS

Home | Current Version | Previous Version | Text Only | Print | Product List | Glossary On
Versions: 1 2 3 4 5 6 7 8 9 10 11 12 13 14
000
FTUS42 TJSJ 181100
TAFJBQ
TAF
TJBQ 181133Z 1812/1912 VRB04KT P6SM SKC
     FM181350 06013KT P6SM FEW025
     FM181730 08012KT P6SM VCTS BKN040CB
     FM182250 10006KT P6SM VCTS SCT040CB
      AMD NOT SKED 1902/1911=

USA.gov is the U.S. government's official web portal to all federal, state and local government web resources and services.